sensor_id;sensor_type;location;lat;lon;timestamp;pressure;altitude;pressure_sealevel;temperature;humidity
7333;BME280;3707;43.618;25.342;2023-03-13T00:00:46;100625.28;;;5.70;82.15
7333;BME280;3707;43.618;25.342;2023-03-13T00:03:13;100626.28;;;5.74;81.82
7333;BME280;3707;43.618;25.342;2023-03-13T00:05:41;100620.31;;;5.75;82.71
7333;BME280;3707;43.618;25.342;2023-03-13T00:08:08;100623.44;;;5.68;82.09
7333;BME280;3707;43.618;25.342;2023-03-13T00:10:35;100635.97;;;5.60;82.56
7333;BME280;3707;43.618;25.342;2023-03-13T00:13:02;100632.78;;;5.66;82.54
7333;BME280;3707;43.618;25.342;2023-03-13T00:15:29;100620.22;;;5.53;82.95
7333;BME280;3707;43.618;25.342;2023-03-13T00:17:56;100620.69;;;5.44;82.44
7333;BME280;3707;43.618;25.342;2023-03-13T00:20:23;100643.97;;;5.66;82.42
7333;BME280;3707;43.618;25.342;2023-03-13T00:22:51;100639.53;;;5.64;82.91
7333;BME280;3707;43.618;25.342;2023-03-13T00:25:18;100606.53;;;5.54;81.72
7333;BME280;3707;43.618;25.342;2023-03-13T00:27:44;100638.47;;;5.59;82.55
7333;BME280;3707;43.618;25.342;2023-03-13T00:30:12;100645.09;;;5.54;82.55
7333;BME280;3707;43.618;25.342;2023-03-13T00:32:42;100648.34;;;5.69;82.57
7333;BME280;3707;43.618;25.342;2023-03-13T00:35:10;100644.44;;;5.58;82.01
7333;BME280;3707;43.618;25.342;2023-03-13T00:37:37;100621.69;;;5.47;82.43
7333;BME280;3707;43.618;25.342;2023-03-13T00:40:06;100650.00;;;5.67;82.54
7333;BME280;3707;43.618;25.342;2023-03-13T00:42:33;100620.56;;;5.41;83.31
7333;BME280;3707;43.618;25.342;2023-03-13T00:45:00;100646.47;;;5.65;82.79
7333;BME280;3707;43.618;25.342;2023-03-13T00:47:27;100636.72;;;5.58;82.45
7333;BME280;3707;43.618;25.342;2023-03-13T00:49:54;100631.66;;;5.21;82.95
7333;BME280;3707;43.618;25.342;2023-03-13T00:52:20;100653.19;;;5.42;83.25
7333;BME280;3707;43.618;25.342;2023-03-13T00:54:48;100616.00;;;5.35;83.04
7333;BME280;3707;43.618;25.342;2023-03-13T00:57:17;100646.94;;;5.56;83.42
7333;BME280;3707;43.618;25.342;2023-03-13T00:59:43;100642.28;;;5.47;83.21
7333;BME280;3707;43.618;25.342;2023-03-13T01:02:10;100649.19;;;5.48;85.06
7333;BME280;3707;43.618;25.342;2023-03-13T01:04:37;100644.72;;;5.44;83.95
7333;BME280;3707;43.618;25.342;2023-03-13T01:07:04;100652.00;;;5.35;83.21
7333;BME280;3707;43.618;25.342;2023-03-13T01:09:31;100655.28;;;5.31;83.47
7333;BME280;3707;43.618;25.342;2023-03-13T01:11:57;100654.44;;;5.32;84.17
7333;BME280;3707;43.618;25.342;2023-03-13T01:14:25;100651.75;;;5.29;84.53
7333;BME280;3707;43.618;25.342;2023-03-13T01:16:52;100636.44;;;5.13;84.70
7333;BME280;3707;43.618;25.342;2023-03-13T01:19:19;100649.97;;;5.28;86.05
7333;BME280;3707;43.618;25.342;2023-03-13T01:21:46;100656.88;;;5.29;85.98
7333;BME280;3707;43.618;25.342;2023-03-13T01:24:13;100657.94;;;5.15;86.07
7333;BME280;3707;43.618;25.342;2023-03-13T01:26:41;100659.84;;;5.19;86.67
7333;BME280;3707;43.618;25.342;2023-03-13T01:29:08;100657.34;;;5.21;86.56
7333;BME280;3707;43.618;25.342;2023-03-13T01:31:36;100662.69;;;5.25;86.75
7333;BME280;3707;43.618;25.342;2023-03-13T01:34:04;100663.75;;;5.11;86.23
7333;BME280;3707;43.618;25.342;2023-03-13T01:36:32;100646.06;;;4.99;86.25
7333;BME280;3707;43.618;25.342;2023-03-13T01:38:59;100667.94;;;5.09;86.35
7333;BME280;3707;43.618;25.342;2023-03-13T01:41:27;100668.63;;;5.05;86.29
7333;BME280;3707;43.618;25.342;2023-03-13T01:43:54;100670.81;;;4.97;87.42
7333;BME280;3707;43.618;25.342;2023-03-13T01:46:22;100671.56;;;4.95;86.91
7333;BME280;3707;43.618;25.342;2023-03-13T01:48:55;100671.19;;;5.05;86.88
7333;BME280;3707;43.618;25.342;2023-03-13T01:51:26;100663.72;;;4.92;87.72
7333;BME280;3707;43.618;25.342;2023-03-13T01:53:59;100666.47;;;4.77;88.09
7333;BME280;3707;43.618;25.342;2023-03-13T01:56:33;100659.97;;;4.68;89.22
7333;BME280;3707;43.618;25.342;2023-03-13T01:59:02;100675.84;;;4.77;88.22
7333;BME280;3707;43.618;25.342;2023-03-13T02:01:30;100675.06;;;4.78;89.04
7333;BME280;3707;43.618;25.342;2023-03-13T02:04:00;100678.69;;;4.83;89.58
7333;BME280;3707;43.618;25.342;2023-03-13T02:06:28;100680.63;;;4.69;88.97
7333;BME280;3707;43.618;25.342;2023-03-13T02:08:59;100690.47;;;4.78;88.60
7333;BME280;3707;43.618;25.342;2023-03-13T02:11:36;100682.25;;;4.67;88.77
7333;BME280;3707;43.618;25.342;2023-03-13T02:14:06;100676.50;;;4.55;89.14
7333;BME280;3707;43.618;25.342;2023-03-13T02:16:33;100680.38;;;4.65;89.95
7333;BME280;3707;43.618;25.342;2023-03-13T02:19:08;100691.91;;;4.73;89.00
7333;BME280;3707;43.618;25.342;2023-03-13T02:21:46;100703.97;;;4.56;89.15
7333;BME280;3707;43.618;25.342;2023-03-13T02:24:22;100682.81;;;4.62;89.24
7333;BME280;3707;43.618;25.342;2023-03-13T02:26:53;100695.09;;;4.67;89.75
7333;BME280;3707;43.618;25.342;2023-03-13T02:29:20;100698.81;;;4.56;88.09
7333;BME280;3707;43.618;25.342;2023-03-13T02:31:47;100661.38;;;4.43;87.32
7333;BME280;3707;43.618;25.342;2023-03-13T02:34:17;100705.78;;;4.59;88.68
7333;BME280;3707;43.618;25.342;2023-03-13T02:36:46;100704.66;;;4.54;88.51
7333;BME280;3707;43.618;25.342;2023-03-13T02:39:17;100699.47;;;4.34;89.29
7333;BME280;3707;43.618;25.342;2023-03-13T02:41:46;100713.44;;;4.23;89.36
7333;BME280;3707;43.618;25.342;2023-03-13T02:44:15;100687.28;;;4.14;89.99
7333;BME280;3707;43.618;25.342;2023-03-13T02:46:45;100711.25;;;4.31;90.50
7333;BME280;3707;43.618;25.342;2023-03-13T02:49:21;100719.63;;;4.44;89.02
7333;BME280;3707;43.618;25.342;2023-03-13T02:51:48;100718.38;;;4.36;88.86
7333;BME280;3707;43.618;25.342;2023-03-13T02:54:18;100724.16;;;4.32;88.67
7333;BME280;3707;43.618;25.342;2023-03-13T02:56:47;100724.81;;;4.46;88.85
7333;BME280;3707;43.618;25.342;2023-03-13T02:59:17;100728.56;;;4.35;88.82
7333;BME280;3707;43.618;25.342;2023-03-13T03:01:44;100733.53;;;4.32;88.42
7333;BME280;3707;43.618;25.342;2023-03-13T03:04:11;100729.44;;;4.35;88.27
7333;BME280;3707;43.618;25.342;2023-03-13T03:06:38;100735.69;;;4.40;87.46
7333;BME280;3707;43.618;25.342;2023-03-13T03:09:04;100739.78;;;4.37;87.33
7333;BME280;3707;43.618;25.342;2023-03-13T03:11:31;100727.81;;;4.20;88.76
7333;BME280;3707;43.618;25.342;2023-03-13T03:13:58;100748.38;;;4.37;89.29
7333;BME280;3707;43.618;25.342;2023-03-13T03:16:26;100745.66;;;4.34;87.88
7333;BME280;3707;43.618;25.342;2023-03-13T03:18:53;100744.38;;;4.26;89.13
7333;BME280;3707;43.618;25.342;2023-03-13T03:21:20;100742.63;;;4.25;87.88
7333;BME280;3707;43.618;25.342;2023-03-13T03:23:48;100733.38;;;4.29;88.08
7333;BME280;3707;43.618;25.342;2023-03-13T03:26:17;100747.19;;;4.31;87.07
7333;BME280;3707;43.618;25.342;2023-03-13T03:28:44;100726.81;;;4.18;87.43
7333;BME280;3707;43.618;25.342;2023-03-13T03:31:12;100766.94;;;4.49;87.42
7333;BME280;3707;43.618;25.342;2023-03-13T03:33:42;100772.78;;;4.63;86.62
7333;BME280;3707;43.618;25.342;2023-03-13T03:36:11;100779.75;;;4.66;85.45
7333;BME280;3707;43.618;25.342;2023-03-13T03:38:39;100782.03;;;4.60;85.90
7333;BME280;3707;43.618;25.342;2023-03-13T03:41:06;100794.03;;;4.61;86.54
7333;BME280;3707;43.618;25.342;2023-03-13T03:43:32;100804.09;;;4.56;86.47
7333;BME280;3707;43.618;25.342;2023-03-13T03:46:00;100768.91;;;4.37;86.69
7333;BME280;3707;43.618;25.342;2023-03-13T03:48:27;100798.91;;;4.38;87.27
7333;BME280;3707;43.618;25.342;2023-03-13T03:50:55;100795.63;;;4.41;89.41
7333;BME280;3707;43.618;25.342;2023-03-13T03:53:22;100801.88;;;4.30;88.94
7333;BME280;3707;43.618;25.342;2023-03-13T03:55:49;100809.22;;;4.90;100.00
7333;BME280;3707;43.618;25.342;2023-03-13T03:58:16;100815.50;;;4.79;100.00
7333;BME280;3707;43.618;25.342;2023-03-13T04:00:43;100814.97;;;4.68;100.00
7333;BME280;3707;43.618;25.342;2023-03-13T04:03:10;100819.41;;;4.55;95.09
7333;BME280;3707;43.618;25.342;2023-03-13T04:05:38;100805.34;;;4.30;93.11
7333;BME280;3707;43.618;25.342;2023-03-13T04:08:06;100801.44;;;4.21;94.10
7333;BME280;3707;43.618;25.342;2023-03-13T04:10:34;100803.22;;;4.39;100.00
7333;BME280;3707;43.618;25.342;2023-03-13T04:13:00;100823.06;;;4.42;100.00
7333;BME280;3707;43.618;25.342;2023-03-13T04:15:27;100856.81;;;4.49;99.53
7333;BME280;3707;43.618;25.342;2023-03-13T04:17:54;100847.69;;;4.38;96.36
7333;BME280;3707;43.618;25.342;2023-03-13T04:20:21;100843.69;;;4.27;96.02
7333;BME280;3707;43.618;25.342;2023-03-13T04:22:48;100854.25;;;4.33;100.00
7333;BME280;3707;43.618;25.342;2023-03-13T04:25:16;100869.81;;;4.36;98.61
7333;BME280;3707;43.618;25.342;2023-03-13T04:27:43;100856.13;;;4.20;100.00
7333;BME280;3707;43.618;25.342;2023-03-13T04:30:11;100890.94;;;4.31;100.00
7333;BME280;3707;43.618;25.342;2023-03-13T04:32:37;100887.44;;;4.14;97.23
7333;BME280;3707;43.618;25.342;2023-03-13T04:35:05;100888.13;;;4.10;97.71
7333;BME280;3707;43.618;25.342;2023-03-13T04:37:32;100893.00;;;4.06;97.13
7333;BME280;3707;43.618;25.342;2023-03-13T04:39:58;100890.00;;;3.98;97.04
7333;BME280;3707;43.618;25.342;2023-03-13T04:42:27;100893.38;;;3.97;97.97
7333;BME280;3707;43.618;25.342;2023-03-13T04:44:53;100888.06;;;3.94;97.48
7333;BME280;3707;43.618;25.342;2023-03-13T04:47:20;100892.31;;;3.93;97.35
7333;BME280;3707;43.618;25.342;2023-03-13T04:49:47;100892.22;;;4.55;100.00
7333;BME280;3707;43.618;25.342;2023-03-13T04:52:14;100896.69;;;4.43;100.00
7333;BME280;3707;43.618;25.342;2023-03-13T04:54:40;100892.88;;;4.35;96.38
7333;BME280;3707;43.618;25.342;2023-03-13T04:57:07;100915.72;;;4.46;93.50
7333;BME280;3707;43.618;25.342;2023-03-13T04:59:35;100915.16;;;4.52;91.95
7333;BME280;3707;43.618;25.342;2023-03-13T05:02:02;100918.28;;;4.46;91.28
7333;BME280;3707;43.618;25.342;2023-03-13T05:04:29;100906.25;;;4.45;91.26
7333;BME280;3707;43.618;25.342;2023-03-13T05:06:56;100915.22;;;4.54;91.04
7333;BME280;3707;43.618;25.342;2023-03-13T05:09:23;100915.50;;;4.42;89.60
7333;BME280;3707;43.618;25.342;2023-03-13T05:11:50;100919.00;;;4.44;89.21
7333;BME280;3707;43.618;25.342;2023-03-13T05:14:16;100925.19;;;4.31;88.47
7333;BME280;3707;43.618;25.342;2023-03-13T05:16:45;100920.28;;;4.36;88.91
7333;BME280;3707;43.618;25.342;2023-03-13T05:19:12;100928.22;;;4.57;88.47
7333;BME280;3707;43.618;25.342;2023-03-13T05:21:38;100922.28;;;4.58;87.55
7333;BME280;3707;43.618;25.342;2023-03-13T05:24:06;100935.44;;;4.80;86.52
7333;BME280;3707;43.618;25.342;2023-03-13T05:26:32;100923.53;;;4.82;85.97
7333;BME280;3707;43.618;25.342;2023-03-13T05:28:59;100950.34;;;5.03;85.32
7333;BME280;3707;43.618;25.342;2023-03-13T05:31:26;100948.59;;;5.02;85.61
7333;BME280;3707;43.618;25.342;2023-03-13T05:33:55;100940.00;;;5.02;83.66
7333;BME280;3707;43.618;25.342;2023-03-13T05:36:22;100941.69;;;5.01;84.39
7333;BME280;3707;43.618;25.342;2023-03-13T05:38:48;100945.88;;;4.99;83.44
7333;BME280;3707;43.618;25.342;2023-03-13T05:41:15;100945.41;;;5.24;82.87
7333;BME280;3707;43.618;25.342;2023-03-13T05:43:42;100942.91;;;5.25;82.22
7333;BME280;3707;43.618;25.342;2023-03-13T05:46:09;100942.03;;;5.42;81.92
7333;BME280;3707;43.618;25.342;2023-03-13T05:48:36;100952.19;;;5.57;81.07
7333;BME280;3707;43.618;25.342;2023-03-13T05:51:04;100944.19;;;5.69;80.68
7333;BME280;3707;43.618;25.342;2023-03-13T05:53:31;100950.75;;;5.80;80.49
7333;BME280;3707;43.618;25.342;2023-03-13T05:55:58;100951.50;;;5.95;79.17
7333;BME280;3707;43.618;25.342;2023-03-13T05:58:25;100947.97;;;5.93;76.66
7333;BME280;3707;43.618;25.342;2023-03-13T06:00:51;100950.34;;;5.88;77.95
7333;BME280;3707;43.618;25.342;2023-03-13T06:03:18;100956.53;;;5.92;78.18
7333;BME280;3707;43.618;25.342;2023-03-13T06:05:45;100951.66;;;5.98;78.48
7333;BME280;3707;43.618;25.342;2023-03-13T06:08:13;100957.59;;;5.97;77.97
7333;BME280;3707;43.618;25.342;2023-03-13T06:10:40;100962.22;;;6.04;76.85
7333;BME280;3707;43.618;25.342;2023-03-13T06:13:07;100960.31;;;6.00;75.51
7333;BME280;3707;43.618;25.342;2023-03-13T06:15:33;100956.66;;;5.95;73.65
7333;BME280;3707;43.618;25.342;2023-03-13T06:18:00;100953.94;;;6.29;90.33
7333;BME280;3707;43.618;25.342;2023-03-13T06:20:27;100932.09;;;6.02;75.00
7333;BME280;3707;43.618;25.342;2023-03-13T06:22:54;100946.31;;;6.30;77.06
7333;BME280;3707;43.618;25.342;2023-03-13T06:25:22;100947.81;;;6.44;77.63
7333;BME280;3707;43.618;25.342;2023-03-13T06:27:49;100939.53;;;6.52;91.36
7333;BME280;3707;43.618;25.342;2023-03-13T06:30:17;100946.56;;;6.75;77.94
7333;BME280;3707;43.618;25.342;2023-03-13T06:32:44;100926.63;;;6.71;73.36
7333;BME280;3707;43.618;25.342;2023-03-13T06:35:10;100941.09;;;6.86;71.90
7333;BME280;3707;43.618;25.342;2023-03-13T06:37:37;100930.19;;;6.73;71.08
7333;BME280;3707;43.618;25.342;2023-03-13T06:40:05;100936.13;;;6.91;75.16
7333;BME280;3707;43.618;25.342;2023-03-13T06:42:34;100915.78;;;6.78;73.16
7333;BME280;3707;43.618;25.342;2023-03-13T06:45:01;100939.59;;;6.91;73.24
7333;BME280;3707;43.618;25.342;2023-03-13T06:47:29;100939.66;;;6.93;70.19
7333;BME280;3707;43.618;25.342;2023-03-13T06:49:56;100944.00;;;6.94;68.86
7333;BME280;3707;43.618;25.342;2023-03-13T06:52:23;100937.06;;;6.93;70.18
7333;BME280;3707;43.618;25.342;2023-03-13T06:54:50;100938.81;;;7.13;69.70
7333;BME280;3707;43.618;25.342;2023-03-13T06:57:17;100858.47;;;6.63;69.66
7333;BME280;3707;43.618;25.342;2023-03-13T06:59:45;100935.03;;;7.05;67.97
7333;BME280;3707;43.618;25.342;2023-03-13T07:02:12;100934.91;;;7.02;68.84
7333;BME280;3707;43.618;25.342;2023-03-13T07:04:39;100945.16;;;7.21;68.70
7333;BME280;3707;43.618;25.342;2023-03-13T07:07:06;100948.03;;;7.27;68.26
7333;BME280;3707;43.618;25.342;2023-03-13T07:09:33;100856.47;;;6.97;70.07
7333;BME280;3707;43.618;25.342;2023-03-13T07:12:00;100915.66;;;7.35;67.17
7333;BME280;3707;43.618;25.342;2023-03-13T07:14:27;100938.94;;;7.58;66.42
7333;BME280;3707;43.618;25.342;2023-03-13T07:16:57;100922.41;;;7.53;66.01
7333;BME280;3707;43.618;25.342;2023-03-13T07:19:25;100951.03;;;7.59;65.92
7333;BME280;3707;43.618;25.342;2023-03-13T07:21:52;100932.41;;;7.66;66.47
7333;BME280;3707;43.618;25.342;2023-03-13T07:24:18;100935.84;;;7.87;66.47
7333;BME280;3707;43.618;25.342;2023-03-13T07:26:45;100943.38;;;7.82;66.29
7333;BME280;3707;43.618;25.342;2023-03-13T07:29:12;100940.59;;;7.98;65.67
7333;BME280;3707;43.618;25.342;2023-03-13T07:31:39;100936.75;;;7.89;66.50
7333;BME280;3707;43.618;25.342;2023-03-13T07:34:07;100933.72;;;7.99;66.37
7333;BME280;3707;43.618;25.342;2023-03-13T07:36:34;100940.06;;;8.07;66.84
7333;BME280;3707;43.618;25.342;2023-03-13T07:39:00;100933.38;;;8.12;65.71
7333;BME280;3707;43.618;25.342;2023-03-13T07:41:27;100933.16;;;8.06;64.99
7333;BME280;3707;43.618;25.342;2023-03-13T07:43:54;100937.25;;;8.01;65.85
7333;BME280;3707;43.618;25.342;2023-03-13T07:46:21;100929.03;;;8.11;65.48
7333;BME280;3707;43.618;25.342;2023-03-13T07:48:48;100938.97;;;8.23;66.07
7333;BME280;3707;43.618;25.342;2023-03-13T07:51:18;100935.75;;;8.28;65.80
7333;BME280;3707;43.618;25.342;2023-03-13T07:53:46;100930.44;;;8.25;66.24
7333;BME280;3707;43.618;25.342;2023-03-13T07:56:14;100944.38;;;8.51;65.18
7333;BME280;3707;43.618;25.342;2023-03-13T07:58:42;100945.06;;;8.71;64.92
7333;BME280;3707;43.618;25.342;2023-03-13T08:01:10;100926.66;;;8.62;63.77
7333;BME280;3707;43.618;25.342;2023-03-13T08:03:37;100940.97;;;8.76;64.14
7333;BME280;3707;43.618;25.342;2023-03-13T08:06:06;100917.09;;;8.83;63.94
7333;BME280;3707;43.618;25.342;2023-03-13T08:08:35;100934.13;;;9.02;62.76
7333;BME280;3707;43.618;25.342;2023-03-13T08:11:04;100938.72;;;9.10;62.90
7333;BME280;3707;43.618;25.342;2023-03-13T08:13:32;100942.47;;;9.18;60.87
7333;BME280;3707;43.618;25.342;2023-03-13T08:16:04;100936.88;;;9.31;61.15
7333;BME280;3707;43.618;25.342;2023-03-13T08:18:31;100936.16;;;9.35;61.17
7333;BME280;3707;43.618;25.342;2023-03-13T08:21:04;100935.53;;;9.17;61.50
7333;BME280;3707;43.618;25.342;2023-03-13T08:23:32;100939.06;;;9.19;62.05
7333;BME280;3707;43.618;25.342;2023-03-13T08:26:05;100936.47;;;9.44;61.81
7333;BME280;3707;43.618;25.342;2023-03-13T08:28:33;100936.56;;;9.48;60.98
7333;BME280;3707;43.618;25.342;2023-03-13T08:31:06;100944.34;;;9.49;61.40
7333;BME280;3707;43.618;25.342;2023-03-13T08:33:33;100934.41;;;9.34;60.57
7333;BME280;3707;43.618;25.342;2023-03-13T08:36:08;100926.47;;;9.55;60.25
7333;BME280;3707;43.618;25.342;2023-03-13T08:38:34;100926.56;;;9.58;60.66
7333;BME280;3707;43.618;25.342;2023-03-13T08:41:04;100921.72;;;9.69;59.95
7333;BME280;3707;43.618;25.342;2023-03-13T08:43:30;100920.84;;;9.68;59.77
7333;BME280;3707;43.618;25.342;2023-03-13T08:45:57;100923.59;;;9.73;59.34
7333;BME280;3707;43.618;25.342;2023-03-13T08:48:24;100913.59;;;9.85;59.23
7333;BME280;3707;43.618;25.342;2023-03-13T08:50:59;100918.59;;;10.07;58.66
7333;BME280;3707;43.618;25.342;2023-03-13T08:53:26;100907.03;;;9.96;57.77
7333;BME280;3707;43.618;25.342;2023-03-13T08:55:53;100920.31;;;10.07;57.82
7333;BME280;3707;43.618;25.342;2023-03-13T08:58:21;100833.59;;;9.66;57.50
7333;BME280;3707;43.618;25.342;2023-03-13T09:00:48;100913.91;;;10.22;57.04
7333;BME280;3707;43.618;25.342;2023-03-13T09:03:15;100913.44;;;10.35;61.05
7333;BME280;3707;43.618;25.342;2023-03-13T09:05:43;100913.97;;;10.54;66.88
7333;BME280;3707;43.618;25.342;2023-03-13T09:08:11;100915.81;;;10.58;59.31
7333;BME280;3707;43.618;25.342;2023-03-13T09:10:37;100912.19;;;10.53;56.84
7333;BME280;3707;43.618;25.342;2023-03-13T09:13:04;100901.66;;;10.47;56.17
7333;BME280;3707;43.618;25.342;2023-03-13T09:15:32;100914.56;;;10.75;55.68
7333;BME280;3707;43.618;25.342;2023-03-13T09:17:59;100919.00;;;10.79;54.30
7333;BME280;3707;43.618;25.342;2023-03-13T09:20:26;100923.72;;;10.62;55.37
7333;BME280;3707;43.618;25.342;2023-03-13T09:22:53;100921.75;;;10.54;55.78
7333;BME280;3707;43.618;25.342;2023-03-13T09:25:19;100856.16;;;10.26;55.34
7333;BME280;3707;43.618;25.342;2023-03-13T09:27:46;100923.38;;;10.80;54.99
7333;BME280;3707;43.618;25.342;2023-03-13T09:30:13;100919.84;;;10.78;53.94
7333;BME280;3707;43.618;25.342;2023-03-13T09:32:41;100918.41;;;10.89;54.73
7333;BME280;3707;43.618;25.342;2023-03-13T09:35:08;100905.13;;;10.77;55.24
7333;BME280;3707;43.618;25.342;2023-03-13T09:37:35;100912.31;;;10.87;55.36
7333;BME280;3707;43.618;25.342;2023-03-13T09:40:02;100905.03;;;11.05;55.25
7333;BME280;3707;43.618;25.342;2023-03-13T09:42:34;100900.06;;;11.14;54.87
7333;BME280;3707;43.618;25.342;2023-03-13T09:45:11;100900.06;;;11.14;54.03
7333;BME280;3707;43.618;25.342;2023-03-13T09:47:44;100901.34;;;10.97;53.86
7333;BME280;3707;43.618;25.342;2023-03-13T09:50:14;100891.28;;;11.09;54.08
7333;BME280;3707;43.618;25.342;2023-03-13T09:52:42;100890.81;;;10.91;53.46
7333;BME280;3707;43.618;25.342;2023-03-13T09:55:13;100883.94;;;10.93;52.33
7333;BME280;3707;43.618;25.342;2023-03-13T09:57:49;100861.78;;;10.73;53.34
7333;BME280;3707;43.618;25.342;2023-03-13T10:00:20;100882.75;;;10.80;53.41
7333;BME280;3707;43.618;25.342;2023-03-13T10:02:54;100886.00;;;11.06;53.11
7333;BME280;3707;43.618;25.342;2023-03-13T10:05:23;100880.03;;;11.09;53.22
7333;BME280;3707;43.618;25.342;2023-03-13T10:07:55;100864.59;;;11.15;52.38
7333;BME280;3707;43.618;25.342;2023-03-13T10:10:37;100883.78;;;11.21;51.53
7333;BME280;3707;43.618;25.342;2023-03-13T10:13:19;100856.31;;;10.95;51.91
7333;BME280;3707;43.618;25.342;2023-03-13T10:15:50;100870.97;;;10.93;51.39
7333;BME280;3707;43.618;25.342;2023-03-13T10:18:21;100881.75;;;11.10;51.37
7333;BME280;3707;43.618;25.342;2023-03-13T10:20:50;100870.69;;;11.15;51.26
7333;BME280;3707;43.618;25.342;2023-03-13T10:23:34;100863.28;;;11.32;51.27
7333;BME280;3707;43.618;25.342;2023-03-13T10:26:03;100868.03;;;11.48;50.91
7333;BME280;3707;43.618;25.342;2023-03-13T10:28:31;100853.72;;;11.29;50.52
7333;BME280;3707;43.618;25.342;2023-03-13T10:31:03;100863.53;;;11.41;50.39
7333;BME280;3707;43.618;25.342;2023-03-13T10:33:36;100849.75;;;11.45;50.41
7333;BME280;3707;43.618;25.342;2023-03-13T10:36:06;100860.63;;;11.65;51.07
7333;BME280;3707;43.618;25.342;2023-03-13T10:38:43;100850.63;;;11.81;50.02
7333;BME280;3707;43.618;25.342;2023-03-13T10:41:19;100841.69;;;11.70;49.34
7333;BME280;3707;43.618;25.342;2023-03-13T10:43:50;100817.63;;;11.41;49.84
7333;BME280;3707;43.618;25.342;2023-03-13T10:46:25;100809.56;;;11.65;50.15
7333;BME280;3707;43.618;25.342;2023-03-13T10:48:55;100829.13;;;11.87;49.45
7333;BME280;3707;43.618;25.342;2023-03-13T10:51:23;100771.00;;;11.44;49.59
7333;BME280;3707;43.618;25.342;2023-03-13T10:53:50;100822.75;;;11.73;49.80
7333;BME280;3707;43.618;25.342;2023-03-13T10:56:23;100813.78;;;11.99;49.85
7333;BME280;3707;43.618;25.342;2023-03-13T10:58:52;100811.59;;;11.77;49.38
7333;BME280;3707;43.618;25.342;2023-03-13T11:01:21;100802.72;;;11.69;49.38
7333;BME280;3707;43.618;25.342;2023-03-13T11:03:50;100804.81;;;11.85;48.75
7333;BME280;3707;43.618;25.342;2023-03-13T11:06:27;100787.72;;;11.96;48.51
7333;BME280;3707;43.618;25.342;2023-03-13T11:09:01;100790.81;;;12.19;52.42
7333;BME280;3707;43.618;25.342;2023-03-13T11:11:28;100809.16;;;12.26;47.92
7333;BME280;3707;43.618;25.342;2023-03-13T11:14:07;100803.09;;;12.27;47.53
7333;BME280;3707;43.618;25.342;2023-03-13T11:16:39;100804.22;;;12.41;49.13
7333;BME280;3707;43.618;25.342;2023-03-13T11:22:33;100790.63;;;12.55;51.83
7333;BME280;3707;43.618;25.342;2023-03-13T11:25:22;100787.63;;;12.33;48.37
7333;BME280;3707;43.618;25.342;2023-03-13T11:28:15;100782.13;;;12.18;46.72
7333;BME280;3707;43.618;25.342;2023-03-13T11:31:12;100775.31;;;12.23;46.67
7333;BME280;3707;43.618;25.342;2023-03-13T11:33:46;100769.16;;;12.21;46.83
7333;BME280;3707;43.618;25.342;2023-03-13T11:36:22;100741.25;;;12.11;46.09
7333;BME280;3707;43.618;25.342;2023-03-13T11:39:01;100763.34;;;12.34;46.84
7333;BME280;3707;43.618;25.342;2023-03-13T11:41:50;100756.47;;;12.38;45.89
7333;BME280;3707;43.618;25.342;2023-03-13T11:44:28;100720.91;;;12.35;48.85
7333;BME280;3707;43.618;25.342;2023-03-13T11:47:17;100744.72;;;12.58;46.75
7333;BME280;3707;43.618;25.342;2023-03-13T11:52:59;100694.78;;;12.29;45.37
7333;BME280;3707;43.618;25.342;2023-03-13T11:55:38;100735.25;;;12.62;45.84
7333;BME280;3707;43.618;25.342;2023-03-13T11:58:25;100746.16;;;12.92;43.87
7333;BME280;3707;43.618;25.342;2023-03-13T12:00:58;100719.31;;;12.95;44.58
7333;BME280;3707;43.618;25.342;2023-03-13T12:03:35;100728.19;;;13.07;43.33
7333;BME280;3707;43.618;25.342;2023-03-13T12:06:05;100722.94;;;13.04;42.82
7333;BME280;3707;43.618;25.342;2023-03-13T12:08:40;100723.72;;;13.00;41.42
7333;BME280;3707;43.618;25.342;2023-03-13T12:11:14;100721.22;;;13.05;41.43
7333;BME280;3707;43.618;25.342;2023-03-13T12:13:45;100704.63;;;12.98;41.68
7333;BME280;3707;43.618;25.342;2023-03-13T12:16:19;100717.63;;;12.98;40.68
7333;BME280;3707;43.618;25.342;2023-03-13T12:18:48;100695.66;;;12.81;41.43
7333;BME280;3707;43.618;25.342;2023-03-13T12:21:18;100678.44;;;12.89;40.23
7333;BME280;3707;43.618;25.342;2023-03-13T12:23:51;100706.25;;;12.93;39.41
7333;BME280;3707;43.618;25.342;2023-03-13T12:26:30;100709.72;;;12.92;38.62
7333;BME280;3707;43.618;25.342;2023-03-13T12:29:06;100698.25;;;12.81;38.26
7333;BME280;3707;43.618;25.342;2023-03-13T12:31:38;100690.59;;;12.90;39.18
7333;BME280;3707;43.618;25.342;2023-03-13T12:34:13;100713.34;;;13.03;38.58
7333;BME280;3707;43.618;25.342;2023-03-13T12:36:47;100711.47;;;12.93;38.61
7333;BME280;3707;43.618;25.342;2023-03-13T12:39:23;100710.75;;;13.03;38.58
7333;BME280;3707;43.618;25.342;2023-03-13T12:42:05;100708.81;;;12.91;38.86
7333;BME280;3707;43.618;25.342;2023-03-13T12:44:34;100709.59;;;12.83;38.77
7333;BME280;3707;43.618;25.342;2023-03-13T12:47:07;100709.91;;;13.04;38.98
7333;BME280;3707;43.618;25.342;2023-03-13T12:52:54;100706.00;;;13.32;39.24
7333;BME280;3707;43.618;25.342;2023-03-13T12:58:29;100692.78;;;13.20;38.82
7333;BME280;3707;43.618;25.342;2023-03-13T13:01:01;100700.81;;;13.33;38.45
7333;BME280;3707;43.618;25.342;2023-03-13T13:03:32;100703.28;;;13.24;38.35
7333;BME280;3707;43.618;25.342;2023-03-13T13:06:12;100692.44;;;12.97;38.64
7333;BME280;3707;43.618;25.342;2023-03-13T13:08:40;100708.41;;;13.18;38.99
7333;BME280;3707;43.618;25.342;2023-03-13T13:17:25;100689.75;;;13.48;38.13
7333;BME280;3707;43.618;25.342;2023-03-13T13:19:53;100694.19;;;13.55;37.50
7333;BME280;3707;43.618;25.342;2023-03-13T13:22:44;100689.94;;;13.65;37.84
7333;BME280;3707;43.618;25.342;2023-03-13T13:25:30;100682.88;;;13.55;38.12
7333;BME280;3707;43.618;25.342;2023-03-13T13:28:25;100668.56;;;13.22;40.32
7333;BME280;3707;43.618;25.342;2023-03-13T13:31:46;100688.06;;;13.52;40.23
7333;BME280;3707;43.618;25.342;2023-03-13T13:34:57;100690.53;;;13.43;39.04
7333;BME280;3707;43.618;25.342;2023-03-13T13:37:27;100670.50;;;13.38;40.32
7333;BME280;3707;43.618;25.342;2023-03-13T13:40:16;100675.84;;;13.48;41.54